createdAt,value
2018-05-12T00:01:33.002Z,5.50
2018-05-12T00:04:00.742Z,5.73
2018-05-12T00:06:28.429Z,5.43
2018-05-12T00:08:56.149Z,5.53
2018-05-12T00:11:24.583Z,5.50
2018-05-12T00:13:52.301Z,6.10
2018-05-12T00:16:20.736Z,5.23
2018-05-12T00:18:48.306Z,5.50
2018-05-12T00:21:15.898Z,6.90
2018-05-12T00:23:43.442Z,5.53
2018-05-12T00:26:11.199Z,5.53
2018-05-12T00:28:38.883Z,5.00
2018-05-12T00:31:06.629Z,5.53
2018-05-12T00:33:34.300Z,6.47
2018-05-12T00:36:02.024Z,6.50
2018-05-12T00:38:29.709Z,5.33
2018-05-12T00:40:57.439Z,4.97
2018-05-12T00:43:25.121Z,4.70
2018-05-12T00:45:53.611Z,4.93
2018-05-12T00:48:22.096Z,4.63
2018-05-12T00:50:50.568Z,5.70
2018-05-12T00:53:19.013Z,5.20
2018-05-12T00:55:46.749Z,4.77
2018-05-12T00:58:14.412Z,8.70
2018-05-12T01:00:42.131Z,7.03
2018-05-12T01:03:09.857Z,4.90
2018-05-12T01:05:37.538Z,4.87
2018-05-12T01:08:05.240Z,5.43
2018-05-12T01:10:32.921Z,4.77
2018-05-12T01:13:00.588Z,4.80
2018-05-12T01:15:28.271Z,4.90
2018-05-12T01:17:56.631Z,9.90
2018-05-12T01:20:24.183Z,5.03
2018-05-12T01:22:51.804Z,4.47
2018-05-12T01:25:19.381Z,5.90
2018-05-12T01:27:46.980Z,5.00
2018-05-12T01:30:14.572Z,5.03
2018-05-12T01:32:42.122Z,5.93
2018-05-12T01:35:09.720Z,5.10
2018-05-12T01:37:37.277Z,4.30
2018-05-12T01:40:05.624Z,5.00
2018-05-12T01:42:33.206Z,5.33
2018-05-12T01:45:00.771Z,4.77
2018-05-12T01:47:28.359Z,4.60
2018-05-12T01:49:56.720Z,7.13
2018-05-12T01:52:24.300Z,4.87
2018-05-12T01:54:52.616Z,5.97
2018-05-12T01:57:20.191Z,4.70
2018-05-12T01:59:47.784Z,5.07
2018-05-12T02:02:15.348Z,4.43
2018-05-12T02:04:42.944Z,4.57
2018-05-12T02:07:11.282Z,4.73
2018-05-12T02:09:38.877Z,4.17
2018-05-12T02:12:06.434Z,4.70
2018-05-12T02:14:34.029Z,4.63
2018-05-12T02:17:01.591Z,5.77
2018-05-12T02:19:29.932Z,4.60
2018-05-12T02:21:57.500Z,4.37
2018-05-12T02:24:25.084Z,5.20
2018-05-12T02:26:52.679Z,4.87
2018-05-12T02:29:20.247Z,4.80
2018-05-12T02:31:47.822Z,4.63
2018-05-12T02:34:15.391Z,4.93
2018-05-12T02:36:42.976Z,4.83
2018-05-12T02:39:10.525Z,5.13
2018-05-12T02:41:38.111Z,5.07
2018-05-12T02:44:05.661Z,4.47
2018-05-12T02:46:33.268Z,4.80
2018-05-12T02:49:01.584Z,4.33
2018-05-12T02:51:29.177Z,5.40
2018-05-12T02:53:56.763Z,5.30
2018-05-12T02:56:24.363Z,4.63
2018-05-12T02:58:52.699Z,4.53
2018-05-12T03:01:20.296Z,6.00
2018-05-12T03:03:47.844Z,4.80
2018-05-12T03:06:15.433Z,4.57
2018-05-12T03:08:43.807Z,4.57
2018-05-12T03:11:11.395Z,5.30
2018-05-12T03:13:39.716Z,4.40
2018-05-12T03:16:07.335Z,7.00
2018-05-12T03:18:35.667Z,4.73
2018-05-12T03:21:03.215Z,5.40
2018-05-12T03:23:30.833Z,5.20
2018-05-12T03:25:59.176Z,4.90
2018-05-12T03:28:26.758Z,5.43
2018-05-12T03:30:54.328Z,5.73
2018-05-12T03:33:21.924Z,5.77
2018-05-12T03:35:50.294Z,5.80
2018-05-12T03:38:17.874Z,5.30
2018-05-12T03:40:46.196Z,5.87
2018-05-12T03:43:13.803Z,5.87
2018-05-12T03:45:42.135Z,4.90
2018-05-12T03:48:09.732Z,6.00
2018-05-12T03:50:37.287Z,5.77
2018-05-12T03:53:04.871Z,5.47
2018-05-12T03:55:32.560Z,5.67
2018-05-12T03:58:00.068Z,5.77
2018-05-12T04:00:27.619Z,6.10
2018-05-12T04:02:55.194Z,5.63
2018-05-12T04:05:34.559Z,6.00
2018-05-12T04:08:14.743Z,5.53
2018-05-12T04:10:43.099Z,5.87
2018-05-12T04:13:10.671Z,6.03
2018-05-12T04:15:38.283Z,8.90
2018-05-12T04:18:06.643Z,6.70
2018-05-12T04:20:35.072Z,6.23
2018-05-12T04:23:03.365Z,6.17
2018-05-12T04:25:30.943Z,6.30
2018-05-12T04:27:58.490Z,6.27
2018-05-12T04:30:26.057Z,6.17
2018-05-12T04:32:53.732Z,7.70
2018-05-12T04:35:21.343Z,6.20
2018-05-12T04:37:49.667Z,6.40
2018-05-12T04:40:17.241Z,7.83
2018-05-12T04:42:44.842Z,7.07
2018-05-12T04:45:13.361Z,6.93
2018-05-12T04:47:40.917Z,6.57
2018-05-12T04:50:08.474Z,6.77
2018-05-12T04:52:36.060Z,7.67
2018-05-12T04:55:03.625Z,7.10
2018-05-12T04:57:31.216Z,9.10
2018-05-12T04:59:58.779Z,8.93
2018-05-12T05:02:26.378Z,8.77
2018-05-12T05:04:54.711Z,7.30
2018-05-12T05:07:22.305Z,7.00
2018-05-12T05:09:49.857Z,8.00
2018-05-12T05:12:17.461Z,8.73
2018-05-12T05:14:45.799Z,8.30
2018-05-12T05:17:13.391Z,7.20
2018-05-12T05:19:40.947Z,9.13
2018-05-12T05:22:08.507Z,7.87
2018-05-12T05:24:36.093Z,8.27
2018-05-12T05:27:03.685Z,8.53
2018-05-12T05:29:31.246Z,8.70
2018-05-12T05:31:59.574Z,8.43
2018-05-12T05:34:27.188Z,9.63
2018-05-12T05:36:55.521Z,8.83
2018-05-12T05:39:23.108Z,9.93
2018-05-12T05:41:50.660Z,9.20
2018-05-12T05:44:18.234Z,9.50
2018-05-12T05:46:46.584Z,9.47
2018-05-12T05:49:14.171Z,12.03
2018-05-12T05:51:41.726Z,12.60
2018-05-12T05:54:09.323Z,10.17
2018-05-12T05:56:36.903Z,9.90
2018-05-12T05:59:04.502Z,12.20
2018-05-12T06:01:32.088Z,11.83
2018-05-12T06:03:59.671Z,9.03
2018-05-12T06:06:27.231Z,10.30
2018-05-12T06:08:54.833Z,10.07
2018-05-12T06:11:22.403Z,10.37
2018-05-12T06:13:50.761Z,10.70
2018-05-12T06:16:18.320Z,12.53
2018-05-12T06:18:45.907Z,11.17
2018-05-12T06:21:14.229Z,10.37
2018-05-12T06:23:41.841Z,15.00
2018-05-12T06:26:10.167Z,11.20
2018-05-12T06:28:37.720Z,12.73
2018-05-12T06:31:05.320Z,11.10
2018-05-12T06:33:32.919Z,11.37
2018-05-12T06:36:00.499Z,13.03
2018-05-12T06:38:28.829Z,10.93
2018-05-12T06:40:56.423Z,10.47
2018-05-12T06:43:24.013Z,11.90
2018-05-12T06:45:51.617Z,11.70
2018-05-12T06:48:19.359Z,10.60
2018-05-12T06:50:47.015Z,12.87
2018-05-12T06:53:14.617Z,10.57
2018-05-12T06:55:42.195Z,10.37
2018-05-12T06:58:09.753Z,11.90
2018-05-12T07:00:37.359Z,10.77
2018-05-12T07:03:05.691Z,11.23
2018-05-12T07:05:33.288Z,12.13
2018-05-12T07:08:00.868Z,11.53
2018-05-12T07:10:28.430Z,9.70
2018-05-12T07:12:56.033Z,10.13
2018-05-12T07:15:23.600Z,9.90
2018-05-12T07:17:51.199Z,13.83
2018-05-12T07:20:18.767Z,11.87
2018-05-12T07:22:46.358Z,9.37
2018-05-12T07:25:14.690Z,12.00
2018-05-12T07:27:42.283Z,10.30
2018-05-12T07:30:09.853Z,10.27
2018-05-12T07:32:37.455Z,9.47
2018-05-12T07:35:05.070Z,10.50
2018-05-12T07:37:32.649Z,9.37
2018-05-12T07:40:00.221Z,9.97
2018-05-12T07:42:27.814Z,12.13
2018-05-12T07:44:56.141Z,8.27
2018-05-12T07:47:23.736Z,9.53
2018-05-12T07:49:51.306Z,8.83
2018-05-12T07:52:18.871Z,9.10
2018-05-12T07:54:46.476Z,9.23
2018-05-12T07:57:14.030Z,8.67
2018-05-12T07:59:41.639Z,9.83
2018-05-12T08:02:09.191Z,11.53
2018-05-12T08:04:36.774Z,9.13
2018-05-12T08:07:04.331Z,9.90
2018-05-12T08:09:31.920Z,9.33
2018-05-12T08:11:59.499Z,11.40
2018-05-12T08:14:27.912Z,8.17
2018-05-12T08:16:55.483Z,8.43
2018-05-12T08:19:23.122Z,8.77
2018-05-12T08:21:51.443Z,8.53
2018-05-12T08:24:19.023Z,9.57
2018-05-12T08:26:46.632Z,8.17
2018-05-12T08:29:14.966Z,10.03
2018-05-12T08:31:42.579Z,12.37
2018-05-12T08:34:10.903Z,12.63
2018-05-12T08:36:39.276Z,9.17
2018-05-12T08:39:06.835Z,9.97
2018-05-12T08:41:34.415Z,9.27
2018-05-12T08:44:01.976Z,13.90
2018-05-12T08:46:29.570Z,10.83
2018-05-12T08:48:57.140Z,9.30
2018-05-12T08:51:24.739Z,9.13
2018-05-12T08:56:24.083Z,8.30
2018-05-12T08:58:51.660Z,8.73
2018-05-12T09:01:19.331Z,8.50
2018-05-12T09:03:46.936Z,8.27
2018-05-12T09:06:14.525Z,8.93
2018-05-12T09:08:42.844Z,8.17
2018-05-12T09:11:10.458Z,8.33
2018-05-12T09:13:38.021Z,9.63
2018-05-12T09:16:05.583Z,8.73
2018-05-12T09:18:33.170Z,6.90
2018-05-12T09:21:01.527Z,7.30
2018-05-12T09:23:29.129Z,7.23
2018-05-12T09:25:56.714Z,6.83
2018-05-12T09:28:24.296Z,7.37
2018-05-12T09:30:51.877Z,5.90
2018-05-12T09:33:19.447Z,8.10
2018-05-12T09:35:47.056Z,6.20
2018-05-12T09:38:15.383Z,7.40
2018-05-12T09:40:42.972Z,6.60
2018-05-12T09:43:10.568Z,6.60
2018-05-12T09:45:38.122Z,7.53
2018-05-12T09:48:06.471Z,7.20
2018-05-12T09:50:34.028Z,7.43
2018-05-12T09:53:01.650Z,7.47
2018-05-12T09:55:29.211Z,11.47
2018-05-12T09:57:56.759Z,9.03
2018-05-12T10:00:25.106Z,6.57
2018-05-12T10:02:52.685Z,6.37
2018-05-12T10:05:20.276Z,7.77
2018-05-12T10:07:48.591Z,7.83
2018-05-12T10:10:16.174Z,8.90
2018-05-12T10:12:43.841Z,11.03
2018-05-12T10:15:11.402Z,8.63
2018-05-12T10:17:38.956Z,7.53
2018-05-12T10:20:07.329Z,6.67
2018-05-12T10:22:34.877Z,8.10
2018-05-12T10:25:02.452Z,7.23
2018-05-12T10:27:30.012Z,7.30
2018-05-12T10:29:57.631Z,7.13
2018-05-12T10:32:25.196Z,7.07
2018-05-12T10:34:52.830Z,6.07
2018-05-12T10:37:20.426Z,7.00
2018-05-12T10:39:48.662Z,6.63
2018-05-12T10:42:16.266Z,5.90
2018-05-12T10:44:43.880Z,7.87
2018-05-12T10:47:11.501Z,7.87
2018-05-12T10:49:39.059Z,5.43
2018-05-12T10:52:06.645Z,5.97
2018-05-12T10:54:34.383Z,5.83
2018-05-12T10:57:02.021Z,6.90
2018-05-12T10:59:29.561Z,6.20
2018-05-12T11:01:57.991Z,5.87
2018-05-12T11:04:25.560Z,6.03
2018-05-12T11:06:53.188Z,6.33
2018-05-12T11:09:21.518Z,5.97
2018-05-12T11:11:49.143Z,8.63
2018-05-12T11:14:16.699Z,5.67
2018-05-12T11:16:45.020Z,7.50
2018-05-12T11:19:12.605Z,7.17
2018-05-12T11:21:40.280Z,5.60
2018-05-12T11:24:08.621Z,7.67
2018-05-12T11:26:36.284Z,6.37
2018-05-12T11:29:03.787Z,7.53
2018-05-12T11:31:31.359Z,5.03
2018-05-12T11:33:59.728Z,5.50
2018-05-12T11:36:27.286Z,4.80
2018-05-12T11:38:54.879Z,6.20
2018-05-12T11:41:22.434Z,4.70
2018-05-12T11:43:50.018Z,4.10
2018-05-12T11:46:18.341Z,5.40
2018-05-12T11:48:46.704Z,7.63
2018-05-12T11:51:14.267Z,14.83
2018-05-12T11:53:41.858Z,4.93
2018-05-12T11:56:09.415Z,5.07
2018-05-12T11:58:37.775Z,3.90
2018-05-12T12:01:05.371Z,7.00
2018-05-12T12:03:32.926Z,3.87
2018-05-12T12:06:00.738Z,3.50
2018-05-12T12:08:28.298Z,4.73
2018-05-12T12:10:55.861Z,3.90
2018-05-12T12:13:23.613Z,4.47
2018-05-12T12:15:51.263Z,3.20
2018-05-12T12:18:18.902Z,3.73
2018-05-12T12:20:46.619Z,3.93
2018-05-12T12:23:14.320Z,4.27
2018-05-12T12:25:42.181Z,3.63
2018-05-12T12:28:09.742Z,4.63
2018-05-12T12:30:37.329Z,2.80
2018-05-12T12:33:05.667Z,2.87
2018-05-12T12:35:33.342Z,3.13
2018-05-12T12:38:01.724Z,4.93
2018-05-12T12:40:29.312Z,3.27
2018-05-12T12:42:56.858Z,3.00
2018-05-12T12:45:24.428Z,5.60
2018-05-12T12:47:51.988Z,3.03
2018-05-12T12:50:19.569Z,2.90
2018-05-12T12:52:47.147Z,4.47
2018-05-12T12:55:14.733Z,3.67
2018-05-12T12:57:42.285Z,3.23
2018-05-12T13:00:09.859Z,4.53
2018-05-12T13:02:37.517Z,3.73
2018-05-12T13:05:05.864Z,4.27
2018-05-12T13:07:33.452Z,2.77
2018-05-12T13:10:01.778Z,5.40
2018-05-12T13:12:29.351Z,2.57
2018-05-12T13:14:56.919Z,5.37
2018-05-12T13:17:24.490Z,3.53
2018-05-12T13:19:52.079Z,3.20
2018-05-12T13:22:19.769Z,3.73
2018-05-12T13:24:47.511Z,2.67
2018-05-12T13:27:15.074Z,3.13
2018-05-12T13:29:42.643Z,3.30
2018-05-12T13:32:10.300Z,3.93
2018-05-12T13:34:37.864Z,3.20
2018-05-12T13:37:05.470Z,3.17
2018-05-12T13:39:33.832Z,2.60
2018-05-12T13:42:01.387Z,2.77
2018-05-12T13:44:28.986Z,3.03
2018-05-12T13:46:58.184Z,3.27
2018-05-12T13:49:26.523Z,2.87
2018-05-12T13:51:54.108Z,3.33
2018-05-12T13:54:21.701Z,2.80
2018-05-12T13:56:50.127Z,3.40
2018-05-12T13:59:17.916Z,2.70
2018-05-12T14:01:45.551Z,3.13
2018-05-12T14:04:13.130Z,3.83
2018-05-12T14:06:40.677Z,3.73
2018-05-12T14:09:08.564Z,3.00
2018-05-12T14:11:36.946Z,3.67
2018-05-12T14:14:04.529Z,3.13
2018-05-12T14:16:32.082Z,2.80
2018-05-12T14:18:59.667Z,3.00
2018-05-12T14:21:27.229Z,3.17
2018-05-12T14:23:54.822Z,2.93
2018-05-12T14:26:23.232Z,3.03
2018-05-12T14:28:50.805Z,2.83
2018-05-12T14:31:18.478Z,3.30
2018-05-12T14:33:47.056Z,8.30
2018-05-12T14:36:14.631Z,3.10
2018-05-12T14:38:42.215Z,4.30
2018-05-12T14:41:09.759Z,3.17
2018-05-12T14:43:37.302Z,3.10
2018-05-12T14:46:04.884Z,2.97
2018-05-12T14:48:32.454Z,2.53
2018-05-12T14:51:00.094Z,3.10
2018-05-12T14:53:27.633Z,2.90
2018-05-12T14:55:55.352Z,3.53
2018-05-12T14:58:23.806Z,4.23
2018-05-12T15:00:51.401Z,3.10
2018-05-12T15:03:18.947Z,3.43
2018-05-12T15:05:46.524Z,3.27
2018-05-12T15:08:14.074Z,4.77
2018-05-12T15:10:41.680Z,3.40
2018-05-12T15:13:09.222Z,3.37
2018-05-12T15:15:37.562Z,3.63
2018-05-12T15:18:05.138Z,2.93
2018-05-12T15:20:33.480Z,3.23
2018-05-12T15:23:01.044Z,3.50
2018-05-12T15:25:28.679Z,2.80
2018-05-12T15:27:56.335Z,3.30
2018-05-12T15:30:24.274Z,4.30
2018-05-12T15:32:51.884Z,5.13
2018-05-12T15:35:19.481Z,3.47
2018-05-12T15:37:47.886Z,3.20
2018-05-12T15:40:15.535Z,3.83
2018-05-12T15:42:43.126Z,3.13
2018-05-12T15:45:10.671Z,2.87
2018-05-12T15:47:38.244Z,3.33
2018-05-12T15:50:05.779Z,3.63
2018-05-12T15:52:33.348Z,3.63
2018-05-12T15:55:00.908Z,3.50
2018-05-12T15:57:28.649Z,3.10
2018-05-12T15:59:56.183Z,3.40
2018-05-12T16:02:24.513Z,6.93
2018-05-12T16:04:52.067Z,5.00
2018-05-12T16:07:19.645Z,4.10
2018-05-12T16:09:47.265Z,3.80
2018-05-12T16:12:15.685Z,5.13
2018-05-12T16:14:43.186Z,4.80
2018-05-12T16:17:10.806Z,3.43
2018-05-12T16:19:38.401Z,3.87
2018-05-12T16:22:06.005Z,3.50
2018-05-12T16:24:34.371Z,4.73
2018-05-12T16:27:01.930Z,2.97
2018-05-12T16:29:29.581Z,2.90
2018-05-12T16:31:57.286Z,6.03
2018-05-12T16:34:24.879Z,3.03
2018-05-12T16:36:52.448Z,2.83
2018-05-12T16:39:20.041Z,3.37
2018-05-12T16:41:47.624Z,5.50
2018-05-12T16:44:15.186Z,3.90
2018-05-12T16:46:42.747Z,5.50
2018-05-12T16:49:10.304Z,3.83
2018-05-12T16:51:37.867Z,3.30
2018-05-12T16:54:05.505Z,3.77
2018-05-12T16:56:33.056Z,3.63
2018-05-12T16:59:01.416Z,3.67
2018-05-12T17:01:29.750Z,4.90
2018-05-12T17:03:57.324Z,3.83
2018-05-12T17:06:25.077Z,3.50
2018-05-12T17:08:52.589Z,4.43
2018-05-12T17:11:20.948Z,3.37
2018-05-12T17:13:48.607Z,4.23
2018-05-12T17:16:16.177Z,3.70
2018-05-12T17:18:43.706Z,3.43
2018-05-12T17:21:11.259Z,3.70
2018-05-12T17:23:39.606Z,3.33
2018-05-12T17:26:07.169Z,3.60
2018-05-12T17:28:34.733Z,3.53
2018-05-12T17:31:02.318Z,7.33
2018-05-12T17:33:29.919Z,6.80
2018-05-12T17:35:57.506Z,3.87
2018-05-12T17:38:25.058Z,3.77
2018-05-12T17:40:52.605Z,3.77
2018-05-12T17:43:20.286Z,4.10
2018-05-12T17:45:47.867Z,3.87
2018-05-12T17:48:15.430Z,3.97
2018-05-12T17:50:43.014Z,3.77
2018-05-12T17:53:10.626Z,3.77
2018-05-12T17:55:39.046Z,5.83
2018-05-12T17:58:06.562Z,4.10
2018-05-12T18:00:34.998Z,3.90
2018-05-12T18:03:02.597Z,4.23
2018-05-12T18:05:30.182Z,4.17
2018-05-12T18:07:58.537Z,3.90
2018-05-12T18:10:26.090Z,4.10
2018-05-12T18:12:53.683Z,4.30
2018-05-12T18:15:21.251Z,9.30
2018-05-12T18:17:49.598Z,4.87
2018-05-12T18:20:17.149Z,4.37
2018-05-12T18:22:44.730Z,4.63
2018-05-12T18:25:12.273Z,11.13
2018-05-12T18:27:39.881Z,5.20
2018-05-12T18:30:07.441Z,8.33
2018-05-12T18:32:35.000Z,5.83
2018-05-12T18:35:02.653Z,6.30
2018-05-12T18:37:30.169Z,5.23
2018-05-12T18:39:57.760Z,6.50
2018-05-12T18:42:25.383Z,5.13
2018-05-12T18:44:53.722Z,5.20
2018-05-12T18:47:21.348Z,5.37
2018-05-12T18:49:49.748Z,9.97
2018-05-12T18:52:17.299Z,7.10
2018-05-12T18:54:44.887Z,6.13
2018-05-12T18:57:12.445Z,6.13
2018-05-12T18:59:40.036Z,6.03
2018-05-12T19:02:07.592Z,7.13
2018-05-12T19:04:35.163Z,7.27
2018-05-12T19:07:02.693Z,7.27
2018-05-12T19:09:30.255Z,6.77
2018-05-12T19:11:57.800Z,8.37
2018-05-12T19:14:26.145Z,7.00
2018-05-12T19:16:53.688Z,7.20
2018-05-12T19:19:21.312Z,7.10
2018-05-12T19:21:49.640Z,7.00
2018-05-12T19:24:17.243Z,6.53
2018-05-12T19:26:44.776Z,6.73
2018-05-12T19:29:12.327Z,7.70
2018-05-12T19:31:39.907Z,6.83
2018-05-12T19:34:07.479Z,7.53
2018-05-12T19:36:35.056Z,9.07
2018-05-12T19:39:02.614Z,6.83
2018-05-12T19:41:30.194Z,7.97
2018-05-12T19:43:57.774Z,8.10
2018-05-12T19:46:26.112Z,8.73
2018-05-12T19:48:53.671Z,9.67
2018-05-12T19:51:21.256Z,9.53
2018-05-12T19:53:48.806Z,8.20
2018-05-12T19:56:16.381Z,11.80
2018-05-12T19:58:43.927Z,11.10
2018-05-12T20:01:11.507Z,7.30
2018-05-12T20:03:39.078Z,7.90
2018-05-12T20:06:06.694Z,8.17
2018-05-12T20:08:34.269Z,11.40
2018-05-12T20:11:01.923Z,9.67
2018-05-12T20:13:29.498Z,8.93
2018-05-12T20:15:57.119Z,10.73
2018-05-12T20:18:24.715Z,8.83
2018-05-12T20:20:52.350Z,9.13
2018-05-12T20:23:19.975Z,11.73
2018-05-12T20:25:47.564Z,8.37
2018-05-12T20:28:15.148Z,8.63
2018-05-12T20:30:42.726Z,10.60
2018-05-12T20:33:10.358Z,8.13
2018-05-12T20:35:37.902Z,9.90
2018-05-12T20:38:05.486Z,8.90
2018-05-12T20:40:33.336Z,9.30
2018-05-12T20:43:00.944Z,10.23
2018-05-12T20:45:28.503Z,11.00
2018-05-12T20:47:56.092Z,17.30
2018-05-12T20:50:24.416Z,10.17
2018-05-12T20:52:52.011Z,11.10
2018-05-12T20:55:19.562Z,8.77
2018-05-12T20:57:47.164Z,10.40
2018-05-12T21:00:14.720Z,10.73
2018-05-12T21:02:42.304Z,9.70
2018-05-12T21:05:10.636Z,9.30
2018-05-12T21:07:38.213Z,10.97
2018-05-12T21:10:05.771Z,9.13
2018-05-12T21:12:33.357Z,9.97
2018-05-12T21:15:01.318Z,8.77
2018-05-12T21:17:28.903Z,11.07
2018-05-12T21:19:56.483Z,9.77
2018-05-12T21:22:24.796Z,10.63
2018-05-12T21:24:53.146Z,9.40
2018-05-12T21:27:22.577Z,9.07
2018-05-12T21:29:50.154Z,9.07
2018-05-12T21:32:17.718Z,13.40
2018-05-12T21:34:46.070Z,15.37
2018-05-12T21:37:14.382Z,10.07
2018-05-12T21:39:42.031Z,9.73
2018-05-12T21:42:09.641Z,10.47
2018-05-12T21:44:37.187Z,9.23
2018-05-12T21:47:04.762Z,10.47
2018-05-12T21:49:32.393Z,10.53
2018-05-12T21:52:00.000Z,10.37
2018-05-12T21:54:27.556Z,11.67
2018-05-12T21:56:55.145Z,12.60
2018-05-12T21:59:22.740Z,14.97
2018-05-12T22:01:51.090Z,10.57
2018-05-12T22:04:24.421Z,10.97
2018-05-12T22:06:52.798Z,10.13
2018-05-12T22:09:21.119Z,10.40
2018-05-12T22:11:48.706Z,10.27
2018-05-12T22:14:16.262Z,11.27
2018-05-12T22:16:43.863Z,11.17
2018-05-12T22:19:11.418Z,12.23
2018-05-12T22:21:39.062Z,13.33
2018-05-12T22:24:06.678Z,12.17
2018-05-12T22:26:34.991Z,11.60
2018-05-12T22:29:02.637Z,12.70
2018-05-12T22:31:30.257Z,12.63
2018-05-12T22:33:57.852Z,13.67
2018-05-12T22:36:26.213Z,14.63
2018-05-12T22:38:53.892Z,16.90
2018-05-12T22:41:21.501Z,14.73
2018-05-12T22:43:49.101Z,17.37
2018-05-12T22:46:30.451Z,14.20
2018-05-12T22:48:58.183Z,15.83
2018-05-12T22:51:26.526Z,17.57
2018-05-12T22:53:54.118Z,15.27
2018-05-12T22:56:21.677Z,15.53
2018-05-12T22:58:49.280Z,19.17
2018-05-12T23:01:16.836Z,16.77
2018-05-12T23:03:44.475Z,17.03
2018-05-12T23:06:12.066Z,17.57
2018-05-12T23:08:39.689Z,17.83
2018-05-12T23:11:07.261Z,17.10
2018-05-12T23:13:34.862Z,17.87
2018-05-12T23:16:03.189Z,17.53
2018-05-12T23:18:30.859Z,17.00
2018-05-12T23:20:58.427Z,17.10
2018-05-12T23:23:25.986Z,18.63
2018-05-12T23:25:54.400Z,18.33
2018-05-12T23:28:21.997Z,19.03
2018-05-12T23:30:49.627Z,20.43
2018-05-12T23:33:17.255Z,21.17
2018-05-12T23:35:44.876Z,17.80
2018-05-12T23:38:13.219Z,19.10
2018-05-12T23:40:40.793Z,26.90
2018-05-12T23:43:08.371Z,20.60
2018-05-12T23:45:35.972Z,24.87
2018-05-12T23:48:03.532Z,18.87
2018-05-12T23:50:31.254Z,20.63
2018-05-12T23:52:58.920Z,19.23
2018-05-12T23:55:26.586Z,20.67
2018-05-12T23:57:54.273Z,21.63
